»·PEaware :: N256Z KAVX-KMRY

N256Z :: KAVX-KMRY

FLIGHT INFORMATION

Flight Status: Arrived
Operator: Privately registered:
United States
More flights under this callsign
Pilot: Gregory A. (9731)
Aircraft: PIPER PA-46-500TP MALIBU MERIDIAN
(P46T)
More flights by this aircraft type
Origin: KAVX Catalina
United States
Destination: KMRY Monterey Peninsula
United States
More flights between these airports :: More routes between these airports
Route: + SLI LAX J1 AVE J6 ROBIE BSR PEBB1
File this flight plan on PilotEdge
Remarks:
Altitude:
(Current/Filed)
280ft
Speed:
(Current/Filed)
260kts
Departed: 28-Apr-19 03:26 PM
Arrived: 28-Apr-19 05:00 PM
Distance/Time
Traveled:
255nm/1:33
Distance/Time
To Go:
Arrived

Flight Plot

Page will automatically refresh every two minutes.

Flight plan parsing failed; only flown route is shown


Map Options




Map Legend


Flown Route
Filed Route
Departure Airport
Arrival Airport
Navaid (VOR, NDB)
Fix

Horizontal Profiles

Position Reports

Time Latitude Longitude Heading Altitude Ground
Speed
28-Apr-19 15:00 33.403479 -118.415914 145 1606ft 0kts
28-Apr-19 15:01 33.403479 -118.415914 145 1606ft 0kts
28-Apr-19 15:02 33.403479 -118.415914 145 1606ft 0kts
28-Apr-19 15:03 33.403479 -118.415914 145 1606ft 0kts
28-Apr-19 15:04 33.403479 -118.415914 145 1606ft 0kts
28-Apr-19 15:05 33.403476 -118.415911 145 1606ft 0kts
28-Apr-19 15:06 33.403473 -118.415909 145 1606ft 0kts
28-Apr-19 15:07 33.403471 -118.415907 145 1606ft 0kts
28-Apr-19 15:08 33.403468 -118.415905 145 1606ft 0kts
28-Apr-19 15:09 33.403466 -118.415903 145 1606ft 0kts
28-Apr-19 15:10 33.403463 -118.415901 145 1606ft 0kts
28-Apr-19 15:11 33.403460 -118.415899 145 1606ft 0kts
28-Apr-19 15:12 33.403458 -118.415897 145 1606ft 0kts
28-Apr-19 15:13 33.403455 -118.415895 145 1606ft 0kts
28-Apr-19 15:14 33.403453 -118.415893 145 1606ft 0kts
28-Apr-19 15:15 33.403450 -118.415890 145 1606ft 0kts
28-Apr-19 15:16 33.403448 -118.415888 145 1606ft 0kts
28-Apr-19 15:17 33.403445 -118.415886 145 1606ft 0kts
28-Apr-19 15:18 33.403402 -118.415803 100 1606ft 2kts
28-Apr-19 15:19 33.405755 -118.413861 55 1606ft 25kts
28-Apr-19 15:20 33.407117 -118.411611 7 1606ft 0kts
28-Apr-19 15:21 33.407120 -118.411611 7 1606ft 0kts
28-Apr-19 15:22 33.407123 -118.411610 7 1606ft 0kts
28-Apr-19 15:23 33.407126 -118.411610 7 1606ft 0kts
28-Apr-19 15:24 33.407185 -118.411607 355 1606ft 3kts
28-Apr-19 15:25 33.403024 -118.419305 236 1611ft 105kts
28-Apr-19 15:26 33.374065 -118.431030 118 3206ft 143kts
28-Apr-19 15:27 33.392278 -118.395834 46 4151ft 145kts
28-Apr-19 15:28 33.423525 -118.360250 22 4142ft 159kts
28-Apr-19 15:29 33.463879 -118.345834 16 4138ft 159kts
28-Apr-19 15:30 33.497906 -118.324880 44 5136ft 150kts
28-Apr-19 15:31 33.530182 -118.278673 41 6827ft 198kts
28-Apr-19 15:32 33.571397 -118.239635 34 8403ft 189kts
28-Apr-19 15:34 33.617231 -118.236848 5 9801ft 201kts
28-Apr-19 15:35 33.662982 -118.198339 52 11460ft 208kts
28-Apr-19 15:36 33.702651 -118.143031 40 12909ft 238kts
28-Apr-19 15:37 33.748496 -118.088361 40 12997ft 218kts
28-Apr-19 15:38 33.799670 -118.062280 325 13002ft 201kts
28-Apr-19 15:39 33.813644 -118.111512 274 12999ft 180kts
28-Apr-19 15:40 33.829198 -118.167343 285 13784ft 174kts
28-Apr-19 15:41 33.851498 -118.226201 288 15422ft 210kts
28-Apr-19 15:42 33.876404 -118.288770 288 17011ft 205kts
28-Apr-19 15:43 33.900382 -118.349249 286 18949ft 196kts
28-Apr-19 15:44 33.924272 -118.409769 286 20951ft 204kts
28-Apr-19 15:45 33.966416 -118.460202 312 22961ft 218kts
28-Apr-19 15:46 34.014746 -118.503868 312 24954ft 219kts
28-Apr-19 15:47 34.065576 -118.549086 311 26637ft 232kts
28-Apr-19 15:48 34.115702 -118.593499 311 27817ft 247kts
28-Apr-19 15:49 34.170738 -118.642491 312 27886ft 273kts
28-Apr-19 15:50 34.233098 -118.697570 313 27887ft 279kts
28-Apr-19 15:50 34.278160 -118.737461 313 27888ft 280kts
28-Apr-19 15:52 34.343534 -118.795535 313 27896ft 280kts
28-Apr-19 15:53 34.406413 -118.851578 313 27904ft 280kts
28-Apr-19 15:54 34.469142 -118.907614 313 27908ft 280kts
28-Apr-19 15:54 34.521615 -118.954566 313 27915ft 280kts
28-Apr-19 15:55 34.584289 -119.010755 313 27922ft 280kts
28-Apr-19 15:57 34.650743 -119.070447 313 27928ft 280kts
28-Apr-19 15:58 34.713537 -119.126967 313 27928ft 280kts
28-Apr-19 15:58 34.765675 -119.173977 313 27917ft 280kts
28-Apr-19 15:59 34.828557 -119.230783 314 27896ft 281kts
28-Apr-19 16:00 34.891174 -119.287443 314 27897ft 280kts
28-Apr-19 16:01 34.953725 -119.344151 314 27885ft 280kts
28-Apr-19 16:02 35.016327 -119.401017 314 27872ft 280kts
28-Apr-19 16:03 35.078619 -119.457712 315 27861ft 279kts
28-Apr-19 16:04 35.140823 -119.514436 315 27848ft 279kts
28-Apr-19 16:05 35.203056 -119.571292 315 27837ft 279kts
28-Apr-19 16:06 35.265098 -119.628079 315 27826ft 278kts
28-Apr-19 16:07 35.327242 -119.685052 316 27584ft 273kts
28-Apr-19 16:08 35.385495 -119.738316 316 26494ft 253kts
28-Apr-19 16:09 35.442338 -119.790741 317 25305ft 262kts
28-Apr-19 16:10 35.500308 -119.844094 317 24096ft 253kts
28-Apr-19 16:11 35.554238 -119.893656 317 23806ft 232kts
28-Apr-19 16:12 35.603804 -119.939282 317 23813ft 213kts
28-Apr-19 16:13 35.645316 -119.985771 292 23832ft 192kts
28-Apr-19 16:14 35.668090 -120.046638 286 23847ft 223kts
28-Apr-19 16:15 35.693322 -120.122894 287 23829ft 249kts
28-Apr-19 16:16 35.716117 -120.192101 286 23840ft 246kts
28-Apr-19 16:17 35.741231 -120.268602 286 23846ft 238kts
28-Apr-19 16:18 35.765967 -120.344356 286 23844ft 237kts
28-Apr-19 16:19 35.787631 -120.410888 286 23852ft 237kts
28-Apr-19 16:20 35.812417 -120.487299 286 23860ft 243kts
28-Apr-19 16:21 35.837601 -120.565091 286 23862ft 246kts
28-Apr-19 16:22 35.863154 -120.644213 287 23862ft 251kts
28-Apr-19 16:23 35.899130 -120.717225 316 23863ft 261kts
28-Apr-19 16:24 35.931147 -120.794460 287 23857ft 254kts
28-Apr-19 16:25 35.953535 -120.867164 286 23855ft 254kts
28-Apr-19 16:26 35.977465 -120.949230 285 23853ft 254kts
28-Apr-19 16:27 36.000810 -121.031918 285 23853ft 253kts
28-Apr-19 16:28 36.022972 -121.114366 285 23582ft 250kts
28-Apr-19 16:29 36.044384 -121.195705 285 22423ft 247kts
28-Apr-19 16:30 36.065247 -121.276505 285 21221ft 245kts
28-Apr-19 16:31 36.090715 -121.354284 294 20025ft 243kts
28-Apr-19 16:32 36.114476 -121.430201 287 18834ft 234kts
28-Apr-19 16:33 36.138966 -121.504841 289 17637ft 231kts
28-Apr-19 16:34 36.161685 -121.579000 289 16445ft 229kts
28-Apr-19 16:35 36.183090 -121.648534 286 15244ft 206kts
28-Apr-19 16:36 36.198560 -121.714018 282 14028ft 194kts
28-Apr-19 16:37 36.218722 -121.774139 330 12827ft 196kts
28-Apr-19 16:38 36.267570 -121.793391 344 11716ft 196kts
28-Apr-19 16:39 36.316493 -121.810324 344 10590ft 192kts
28-Apr-19 16:40 36.354775 -121.784070 72 9415ft 185kts
28-Apr-19 16:41 36.369530 -121.722615 73 8224ft 187kts
28-Apr-19 16:42 36.377418 -121.659664 93 7127ft 184kts
28-Apr-19 16:43 36.374282 -121.598026 93 6999ft 188kts
28-Apr-19 16:44 36.370981 -121.532620 93 6985ft 191kts
28-Apr-19 16:45 36.367997 -121.473850 93 6984ft 189kts
28-Apr-19 16:46 36.393837 -121.434671 354 6988ft 179kts
28-Apr-19 16:47 36.442181 -121.442525 351 6983ft 174kts
28-Apr-19 16:48 36.489573 -121.450431 351 6986ft 173kts
28-Apr-19 16:49 36.534253 -121.457977 346 6981ft 149kts
28-Apr-19 16:50 36.534549 -121.501757 242 6555ft 155kts
28-Apr-19 16:51 36.502584 -121.534325 252 6092ft 145kts
28-Apr-19 16:52 36.500314 -121.588047 274 5645ft 166kts
28-Apr-19 16:53 36.512090 -121.633194 297 4979ft 118kts
28-Apr-19 16:54 36.528687 -121.670376 294 4342ft 125kts
28-Apr-19 16:55 36.541418 -121.708631 289 3880ft 117kts
28-Apr-19 16:56 36.553824 -121.746958 292 3188ft 121kts
28-Apr-19 16:57 36.567099 -121.785023 288 2193ft 115kts
28-Apr-19 16:58 36.579153 -121.820246 286 681ft 107kts
28-Apr-19 16:59 36.587002 -121.844562 296 209ft 24kts
28-Apr-19 17:00 36.587350 -121.847535 144 209ft 0kts

Navigation Log

Ident Type
Flight plan parsing failed, navigation log unavailable